Time;durP1;ratioP1;P1;durP2;ratioP2;P2;SDS_P1;SDS_P2;PMS_P1;PMS_P2;Temp;Humidity;BMP_temperature;BMP_pressure;BME280_temperature;BME280_humidity;BME280_pressure;Samples;Min_cycle;Max_cycle;Signal;HPM_P1;HPM_P2
2024/04/06 00:00:23;;;;;;;3.35;2.47;;;13.90;99.90;;;;;;5037677;28;20226;-74
2024/04/06 00:02:50;;;;;;;2.35;2.15;;;13.90;99.90;;;;;;5040256;28;20774;-74
2024/04/06 00:05:18;;;;;;;2.22;2.03;;;13.90;99.90;;;;;;5038799;28;20624;-74
2024/04/06 00:07:45;;;;;;;3.10;2.15;;;13.90;99.90;;;;;;5037367;28;20219;-74
2024/04/06 00:10:13;;;;;;;2.10;1.90;;;13.90;99.90;;;;;;5038326;28;20238;-72
2024/04/06 00:12:40;;;;;;;2.60;1.92;;;13.90;99.90;;;;;;5036866;28;20211;-73
2024/04/06 00:15:06;;;;;;;2.13;1.92;;;13.90;99.90;;;;;;5035687;28;20221;-73
2024/04/06 00:17:33;;;;;;;2.90;2.42;;;14.00;99.90;;;;;;5039739;28;20288;-74
2024/04/06 00:19:59;;;;;;;4.88;2.42;;;14.00;99.90;;;;;;5039452;28;20276;-73
2024/04/06 00:22:26;;;;;;;3.47;2.25;;;13.90;99.90;;;;;;5037652;28;20230;-73
2024/04/06 00:24:52;;;;;;;2.50;2.30;;;13.90;99.90;;;;;;5040210;28;20314;-73
2024/04/06 00:27:21;;;;;;;3.22;2.40;;;13.80;99.90;;;;;;5038555;28;20225;-72
2024/04/06 00:29:47;;;;;;;2.50;2.30;;;13.80;99.90;;;;;;5038859;28;20299;-73
2024/04/06 00:32:14;;;;;;;3.22;2.25;;;13.80;99.90;;;;;;5036953;28;20215;-73
2024/04/06 00:34:40;;;;;;;2.25;1.85;;;13.80;99.90;;;;;;5036499;28;20218;-73
2024/04/06 00:37:08;;;;;;;2.22;2.03;;;13.80;99.90;;;;;;5037184;28;20222;-74
2024/04/06 00:39:33;;;;;;;2.03;1.92;;;13.80;99.90;;;;;;5039381;28;20218;-74
2024/04/06 00:42:00;;;;;;;2.30;2.05;;;13.80;99.90;;;;;;5037446;28;20222;-73
2024/04/06 00:44:28;;;;;;;2.33;2.05;;;13.80;99.90;;;;;;5037801;28;21445;-73
2024/04/06 00:46:55;;;;;;;2.33;1.83;;;13.80;99.90;;;;;;5037222;28;20252;-73
2024/04/06 00:49:21;;;;;;;1.73;1.63;;;13.80;99.90;;;;;;5038368;28;20353;-74
2024/04/06 00:51:48;;;;;;;2.40;1.95;;;13.70;99.90;;;;;;5037784;28;20222;-73
2024/04/06 00:54:14;;;;;;;3.00;2.22;;;13.70;99.90;;;;;;5039275;28;20235;-73
2024/04/06 00:56:41;;;;;;;2.45;2.25;;;13.70;99.90;;;;;;5039819;28;20365;-73
2024/04/06 00:59:07;;;;;;;2.15;1.98;;;13.70;99.90;;;;;;5057177;28;20219;-74
2024/04/06 01:01:36;;;;;;;3.47;1.92;;;13.60;99.90;;;;;;5040745;28;20754;-73
2024/04/06 01:04:02;;;;;;;2.35;1.98;;;13.60;99.90;;;;;;5043135;28;20227;-73
2024/04/06 01:06:30;;;;;;;1.70;1.60;;;13.60;99.90;;;;;;5043571;28;20240;-73
2024/04/06 01:08:56;;;;;;;4.20;2.50;;;13.50;99.90;;;;;;5042405;28;20295;-73
2024/04/06 01:11:23;;;;;;;3.08;2.00;;;13.50;99.90;;;;;;5036906;28;20864;-73
2024/04/06 01:13:49;;;;;;;2.10;2.00;;;13.50;99.90;;;;;;5040339;28;20302;-73
2024/04/06 01:16:16;;;;;;;2.60;2.00;;;13.50;99.90;;;;;;5040200;28;20222;-73
2024/04/06 01:18:43;;;;;;;3.42;2.15;;;13.40;99.90;;;;;;5043907;28;20289;-73
2024/04/06 01:21:10;;;;;;;3.50;2.63;;;13.40;99.90;;;;;;5041844;28;20223;-73
2024/04/06 01:23:36;;;;;;;3.63;2.33;;;13.30;99.90;;;;;;5043771;28;20290;-73
2024/04/06 01:26:05;;;;;;;2.67;2.00;;;13.20;99.90;;;;;;5039489;28;20240;-73
2024/04/06 01:28:31;;;;;;;3.03;2.13;;;13.10;99.90;;;;;;5044266;28;20722;-73
2024/04/06 01:30:58;;;;;;;4.63;2.17;;;13.10;99.90;;;;;;5042428;28;20219;-73
2024/04/06 01:33:24;;;;;;;2.60;2.30;;;13.10;99.90;;;;;;5041071;28;20327;-73
2024/04/06 01:35:51;;;;;;;2.13;1.98;;;13.10;99.90;;;;;;5040974;28;20230;-73
2024/04/06 01:38:17;;;;;;;2.50;2.13;;;13.10;99.90;;;;;;5039794;28;20388;-73
2024/04/06 01:40:45;;;;;;;2.60;2.10;;;13.10;99.90;;;;;;5039801;28;20322;-73
2024/04/06 01:43:12;;;;;;;2.33;2.00;;;13.10;99.90;;;;;;5043528;28;20314;-74
2024/04/06 01:45:40;;;;;;;2.40;2.20;;;13.10;99.90;;;;;;5042070;28;20219;-73
2024/04/06 01:48:06;;;;;;;2.38;2.17;;;13.10;99.90;;;;;;5039777;28;20775;-73
2024/04/06 01:50:33;;;;;;;2.65;2.10;;;13.00;99.90;;;;;;5042779;28;20238;-73
2024/04/06 01:52:59;;;;;;;3.70;2.42;;;13.00;99.90;;;;;;5041688;28;20326;-73
2024/04/06 01:55:26;;;;;;;2.38;2.20;;;13.00;99.90;;;;;;5026289;28;20267;-73
2024/04/06 01:57:52;;;;;;;2.45;2.10;;;12.90;99.90;;;;;;5041154;28;20310;-73
2024/04/06 02:00:20;;;;;;;2.80;2.60;;;12.90;99.90;;;;;;5040716;28;20214;-75
2024/04/06 02:02:46;;;;;;;3.05;2.60;;;12.90;99.90;;;;;;5041545;28;20314;-73
2024/04/06 02:05:13;;;;;;;3.72;2.40;;;12.80;99.90;;;;;;5039864;28;20325;-73
2024/04/06 02:07:39;;;;;;;3.15;2.47;;;12.80;99.90;;;;;;5040790;28;20772;-73
2024/04/06 02:10:06;;;;;;;4.40;2.40;;;12.80;99.90;;;;;;5039589;28;20309;-74
2024/04/06 02:12:33;;;;;;;2.45;2.25;;;12.70;99.90;;;;;;5040804;28;20242;-75
2024/04/06 02:15:00;;;;;;;2.22;2.03;;;12.70;99.90;;;;;;5042266;28;20219;-74
2024/04/06 02:17:28;;;;;;;2.75;2.20;;;12.70;99.90;;;;;;5041354;28;20329;-74
2024/04/06 02:19:55;;;;;;;2.20;2.03;;;12.70;99.90;;;;;;5040280;28;20827;-74
2024/04/06 02:22:21;;;;;;;2.28;2.08;;;12.70;99.90;;;;;;5042279;28;20301;-74
2024/04/06 02:24:48;;;;;;;2.40;2.20;;;12.70;99.90;;;;;;5041962;28;20916;-74
2024/04/06 02:27:14;;;;;;;2.70;2.50;;;12.80;99.90;;;;;;5039823;28;20326;-73
2024/04/06 02:29:41;;;;;;;2.97;2.40;;;12.80;99.90;;;;;;5039857;28;20278;-73
2024/04/06 02:32:08;;;;;;;3.58;2.92;;;12.70;99.90;;;;;;5042792;28;20321;-74
2024/04/06 02:34:36;;;;;;;3.13;2.47;;;12.70;99.90;;;;;;5041617;28;20218;-74
2024/04/06 02:37:02;;;;;;;3.65;2.28;;;12.70;99.90;;;;;;5040168;28;20662;-73
2024/04/06 02:39:29;;;;;;;3.40;2.25;;;12.70;99.90;;;;;;5041483;28;20650;-73
2024/04/06 02:41:55;;;;;;;4.57;2.40;;;12.70;99.90;;;;;;5035666;28;20230;-74
2024/04/06 02:44:22;;;;;;;3.30;2.63;;;12.70;99.90;;;;;;5039840;28;20244;-74
2024/04/06 02:46:48;;;;;;;3.13;2.60;;;12.60;99.90;;;;;;5041131;28;20654;-74
2024/04/06 02:49:15;;;;;;;2.25;2.05;;;12.60;99.90;;;;;;5042848;28;20317;-74
2024/04/06 02:51:42;;;;;;;2.70;2.30;;;12.60;99.90;;;;;;5043302;28;20222;-74
2024/04/06 02:54:09;;;;;;;2.42;2.22;;;12.60;99.90;;;;;;5040598;28;20329;-73
2024/04/06 02:56:35;;;;;;;2.42;2.22;;;12.60;99.90;;;;;;5038532;28;20297;-74
2024/04/06 02:59:03;;;;;;;2.28;2.17;;;12.50;99.90;;;;;;5042213;28;20373;-72
2024/04/06 03:01:29;;;;;;;2.70;2.35;;;12.50;99.90;;;;;;5037488;28;20233;-72
2024/04/06 03:03:56;;;;;;;3.22;2.35;;;12.40;99.90;;;;;;5040960;28;21866;-72
2024/04/06 03:06:22;;;;;;;2.80;2.22;;;12.40;99.90;;;;;;5032008;28;20305;-73
2024/04/06 03:08:50;;;;;;;2.50;2.30;;;12.40;99.90;;;;;;5044483;28;20209;-72
2024/04/06 03:11:16;;;;;;;2.47;2.28;;;12.40;99.90;;;;;;5039256;28;20293;-72
2024/04/06 03:13:43;;;;;;;2.80;2.30;;;12.30;99.90;;;;;;5041291;28;20301;-73
2024/04/06 03:16:10;;;;;;;5.18;2.72;;;12.40;99.90;;;;;;5038221;28;20322;-73
2024/04/06 03:18:36;;;;;;;3.15;2.83;;;12.40;99.90;;;;;;5038475;28;20215;-73
2024/04/06 03:21:04;;;;;;;2.65;2.30;;;12.30;99.90;;;;;;5037342;28;20909;-73
2024/04/06 03:23:30;;;;;;;2.75;2.50;;;12.30;99.90;;;;;;5039604;28;20286;-73
2024/04/06 03:25:59;;;;;;;2.30;2.10;;;12.30;99.90;;;;;;5039223;28;20361;-74
2024/04/06 03:28:25;;;;;;;2.60;2.40;;;12.30;99.90;;;;;;5039145;28;20218;-74
2024/04/06 03:30:51;;;;;;;2.30;1.80;;;12.20;99.90;;;;;;5040846;28;20233;-73
2024/04/06 03:33:18;;;;;;;2.50;2.30;;;12.20;99.90;;;;;;5039070;28;20310;-73
2024/04/06 03:35:44;;;;;;;2.50;2.30;;;12.20;99.90;;;;;;5038043;28;20313;-73
2024/04/06 03:38:11;;;;;;;2.50;2.28;;;12.20;99.90;;;;;;5041201;28;20353;-73
2024/04/06 03:40:38;;;;;;;3.30;2.50;;;12.20;99.90;;;;;;5040804;28;20293;-73
2024/04/06 03:43:07;;;;;;;2.42;2.22;;;12.20;99.90;;;;;;5040939;28;20311;-73
2024/04/06 03:45:35;;;;;;;2.78;2.45;;;12.20;99.90;;;;;;5038344;28;20318;-75
2024/04/06 03:48:03;;;;;;;3.05;2.30;;;12.20;99.90;;;;;;5038098;28;20273;-74
2024/04/06 03:50:30;;;;;;;2.80;2.38;;;12.20;99.90;;;;;;5039104;28;20586;-74
2024/04/06 03:52:57;;;;;;;2.75;2.55;;;12.20;99.90;;;;;;5039035;28;20211;-73
2024/04/06 03:55:23;;;;;;;2.30;2.10;;;12.20;99.90;;;;;;5040559;28;20708;-73
2024/04/06 03:57:50;;;;;;;2.75;2.55;;;12.10;99.90;;;;;;5041197;28;20222;-73
2024/04/06 04:00:18;;;;;;;3.25;2.38;;;12.10;99.90;;;;;;5039507;28;20317;-73
2024/04/06 04:02:45;;;;;;;2.67;2.40;;;12.10;99.90;;;;;;5036113;28;20317;-73
2024/04/06 04:05:11;;;;;;;2.42;2.22;;;12.10;99.90;;;;;;5039036;28;20297;-74
2024/04/06 04:07:40;;;;;;;4.40;2.75;;;12.10;99.90;;;;;;5038563;28;20276;-73
2024/04/06 04:10:07;;;;;;;3.65;2.50;;;12.10;99.90;;;;;;5051808;28;20223;-73
2024/04/06 04:12:34;;;;;;;3.05;2.53;;;12.10;99.90;;;;;;5040653;28;20293;-73
2024/04/06 04:15:01;;;;;;;3.38;2.53;;;12.10;99.90;;;;;;5036924;28;22437;-74
2024/04/06 04:17:30;;;;;;;3.13;2.60;;;12.10;99.90;;;;;;5041616;28;20247;-74
2024/04/06 04:19:56;;;;;;;2.78;2.22;;;12.10;99.90;;;;;;5051263;28;20215;-73
2024/04/06 04:22:23;;;;;;;2.65;2.45;;;12.10;99.90;;;;;;5031315;28;20216;-73
2024/04/06 04:24:48;;;;;;;2.42;2.17;;;12.10;99.90;;;;;;5024372;28;20314;-73
2024/04/06 04:27:15;;;;;;;2.80;2.60;;;12.10;99.90;;;;;;5027815;28;20698;-73
2024/04/06 04:29:41;;;;;;;3.53;2.35;;;12.10;99.90;;;;;;5038660;28;20336;-73
2024/04/06 04:32:09;;;;;;;2.25;2.05;;;12.10;99.90;;;;;;5042634;28;20223;-73
2024/04/06 04:34:37;;;;;;;3.13;2.47;;;12.00;99.90;;;;;;5039907;28;20225;-73
2024/04/06 04:37:04;;;;;;;2.30;2.10;;;12.00;99.90;;;;;;5040420;28;20234;-73
2024/04/06 04:39:30;;;;;;;2.55;2.03;;;12.00;99.90;;;;;;5042706;28;20230;-73
2024/04/06 04:41:57;;;;;;;3.53;2.47;;;11.90;99.90;;;;;;5041200;28;20211;-74
2024/04/06 04:44:23;;;;;;;2.38;2.17;;;11.90;99.90;;;;;;5044179;28;20249;-73
2024/04/06 04:46:50;;;;;;;2.22;2.13;;;11.90;99.90;;;;;;5057631;28;20242;-73
2024/04/06 04:49:16;;;;;;;2.35;2.25;;;11.90;99.90;;;;;;5042413;28;20309;-73
2024/04/06 04:51:45;;;;;;;2.40;2.20;;;11.90;99.90;;;;;;5041893;28;20852;-73
2024/04/06 04:54:11;;;;;;;2.90;2.65;;;11.90;99.90;;;;;;5058713;28;21860;-73
2024/04/06 04:56:38;;;;;;;3.70;2.78;;;11.90;99.90;;;;;;5040853;28;20229;-73
2024/04/06 04:59:04;;;;;;;2.78;2.58;;;11.90;99.90;;;;;;5045082;28;20305;-74
2024/04/06 05:01:31;;;;;;;3.00;2.13;;;11.90;99.90;;;;;;5041580;28;20333;-73
2024/04/06 05:03:56;;;;;;;4.55;2.80;;;11.80;99.90;;;;;;5041557;28;20306;-73
2024/04/06 05:06:23;;;;;;;2.50;2.30;;;11.80;99.90;;;;;;5041606;28;20226;-73
2024/04/06 05:08:51;;;;;;;2.90;2.70;;;11.80;99.90;;;;;;5043172;28;20290;-74
2024/04/06 05:11:18;;;;;;;3.92;2.63;;;11.80;99.90;;;;;;5031910;28;20249;-72
2024/04/06 05:13:44;;;;;;;3.20;2.78;;;11.80;99.90;;;;;;5044002;28;20306;-73
2024/04/06 05:16:11;;;;;;;3.50;3.20;;;11.80;99.90;;;;;;5040704;28;20254;-72
2024/04/06 05:18:37;;;;;;;3.50;3.13;;;11.80;99.90;;;;;;5042378;28;20309;-74
2024/04/06 05:21:04;;;;;;;3.85;3.45;;;11.80;99.90;;;;;;5038161;28;20215;-75
2024/04/06 05:23:30;;;;;;;6.57;3.55;;;11.80;99.90;;;;;;5025216;28;20286;-74
2024/04/06 05:25:58;;;;;;;3.70;3.40;;;11.90;99.90;;;;;;5036269;28;20290;-75
2024/04/06 05:28:25;;;;;;;3.45;2.80;;;12.00;99.90;;;;;;5042466;28;20314;-73
2024/04/06 05:30:53;;;;;;;3.20;2.88;;;12.30;99.90;;;;;;5041618;28;20727;-73
2024/04/06 05:33:20;;;;;;;5.32;2.55;;;12.50;99.90;;;;;;5041990;28;20321;-73
2024/04/06 05:35:49;;;;;;;3.47;2.92;;;12.70;99.90;;;;;;5039754;28;20825;-73
2024/04/06 05:38:15;;;;;;;3.17;2.85;;;12.90;99.90;;;;;;5040491;28;20813;-73
2024/04/06 05:40:44;;;;;;;2.88;2.47;;;13.00;99.90;;;;;;5041567;28;20907;-73
2024/04/06 05:43:12;;;;;;;2.78;2.45;;;13.30;99.90;;;;;;5040688;28;20310;-73
2024/04/06 05:45:40;;;;;;;4.07;2.67;;;13.70;99.90;;;;;;5037424;28;20218;-72
2024/04/06 05:48:07;;;;;;;2.78;2.58;;;14.10;99.90;;;;;;5043547;28;20314;-73
2024/04/06 05:50:35;;;;;;;2.55;2.35;;;14.30;99.90;;;;;;5041026;28;20877;-73
2024/04/06 05:53:02;;;;;;;2.70;2.50;;;14.60;99.90;;;;;;5041061;28;20305;-74
2024/04/06 05:55:29;;;;;;;3.00;2.50;;;14.90;99.90;;;;;;5041522;28;20317;-73
2024/04/06 05:57:56;;;;;;;2.90;2.67;;;15.00;99.90;;;;;;5042432;28;20955;-72
2024/04/06 06:00:25;;;;;;;3.22;2.63;;;15.10;99.90;;;;;;5038620;28;20584;-73
2024/04/06 06:02:52;;;;;;;4.40;3.55;;;15.00;99.90;;;;;;5045873;28;20222;-73
2024/04/06 06:05:19;;;;;;;3.42;2.83;;;15.20;99.90;;;;;;5038301;28;20811;-72
2024/04/06 06:07:45;;;;;;;3.47;2.70;;;15.40;99.90;;;;;;5042841;28;20266;-73
2024/04/06 06:10:12;;;;;;;5.22;2.97;;;15.60;99.90;;;;;;5042452;28;20280;-73
2024/04/06 06:12:38;;;;;;;3.10;2.80;;;15.80;99.90;;;;;;5032779;28;20301;-73
2024/04/06 06:15:05;;;;;;;4.50;2.33;;;16.00;99.90;;;;;;5041333;28;20294;-73
2024/04/06 06:17:33;;;;;;;3.03;2.72;;;16.40;99.90;;;;;;5021036;28;20346;-73
2024/04/06 06:20:00;;;;;;;4.93;2.92;;;16.70;99.90;;;;;;5038488;28;20305;-73
2024/04/06 06:22:29;;;;;;;5.90;3.42;;;16.90;99.90;;;;;;5043129;28;20293;-72
2024/04/06 06:24:57;;;;;;;7.22;2.78;;;16.90;99.90;;;;;;5042986;28;20684;-72
2024/04/06 06:27:23;;;;;;;3.80;3.15;;;16.80;99.90;;;;;;5028458;28;20309;-71
2024/04/06 06:29:50;;;;;;;3.20;2.80;;;16.80;99.90;;;;;;5044997;28;20282;-71
2024/04/06 06:32:16;;;;;;;3.17;2.88;;;16.90;99.90;;;;;;5039761;28;20310;-72
2024/04/06 06:34:45;;;;;;;2.55;2.35;;;17.10;99.90;;;;;;5043123;28;20300;-71
2024/04/06 06:37:12;;;;;;;3.17;2.60;;;17.20;99.90;;;;;;5037505;28;20280;-71
2024/04/06 06:39:39;;;;;;;3.15;2.70;;;17.30;99.90;;;;;;5040544;28;20713;-71
2024/04/06 06:42:07;;;;;;;3.95;2.72;;;17.40;99.90;;;;;;5035945;28;20219;-71
2024/04/06 06:44:34;;;;;;;3.40;2.78;;;17.60;99.90;;;;;;5043087;28;20222;-72
2024/04/06 06:47:01;;;;;;;5.43;2.60;;;17.80;99.90;;;;;;5039693;28;20313;-71
2024/04/06 06:49:28;;;;;;;3.25;2.50;;;17.90;99.90;;;;;;5040966;28;20425;-73
2024/04/06 06:51:55;;;;;;;4.65;2.95;;;18.00;99.90;;;;;;5026526;28;20603;-73
2024/04/06 06:54:22;;;;;;;5.65;2.83;;;18.00;99.90;;;;;;5047412;28;20218;-73
2024/04/06 06:56:48;;;;;;;4.90;3.15;;;17.80;99.90;;;;;;5049935;28;20218;-73
2024/04/06 06:59:15;;;;;;;3.33;2.53;;;17.40;99.90;;;;;;5044076;28;20284;-73
2024/04/06 07:01:41;;;;;;;4.10;2.15;;;17.10;99.90;;;;;;5039250;28;20314;-73
2024/04/06 07:04:08;;;;;;;4.00;2.85;;;16.90;99.90;;;;;;5040133;28;20211;-74
2024/04/06 07:06:34;;;;;;;2.85;2.33;;;16.90;99.90;;;;;;5041223;28;20250;-73
2024/04/06 07:09:03;;;;;;;3.78;2.50;;;17.00;99.90;;;;;;5041147;28;20234;-73
2024/04/06 07:11:29;;;;;;;3.38;2.65;;;17.40;99.90;;;;;;5042647;28;20246;-73
2024/04/06 07:13:56;;;;;;;4.45;2.85;;;17.70;99.90;;;;;;5041067;28;20797;-74
2024/04/06 07:16:25;;;;;;;4.43;2.92;;;17.90;99.90;;;;;;5030324;28;20243;-72
2024/04/06 07:18:52;;;;;;;4.45;3.03;;;18.20;99.90;;;;;;5041307;28;20223;-71
2024/04/06 07:21:18;;;;;;;4.28;2.70;;;18.20;99.90;;;;;;5031679;28;20297;-71
2024/04/06 07:23:45;;;;;;;4.03;2.50;;;17.90;99.90;;;;;;5040560;28;20205;-72
2024/04/06 07:26:13;;;;;;;3.40;2.90;;;18.00;99.90;;;;;;5042470;28;20313;-72
2024/04/06 07:28:40;;;;;;;4.60;2.58;;;18.20;99.90;;;;;;5040640;28;20237;-72
2024/04/06 07:31:06;;;;;;;4.32;3.13;;;18.50;99.90;;;;;;5036486;28;20255;-74
2024/04/06 07:33:33;;;;;;;2.50;2.30;;;18.50;99.90;;;;;;5042396;28;20236;-73
2024/04/06 07:35:59;;;;;;;4.80;3.33;;;18.50;99.90;;;;;;5039054;28;20322;-73
2024/04/06 07:38:27;;;;;;;5.85;3.03;;;18.40;99.90;;;;;;5041950;28;20286;-73
2024/04/06 07:40:56;;;;;;;3.60;3.05;;;18.20;99.90;;;;;;5041906;28;20854;-73
2024/04/06 07:43:24;;;;;;;4.45;3.35;;;18.00;99.90;;;;;;5043616;28;20280;-73
2024/04/06 07:45:50;;;;;;;4.57;2.70;;;17.80;99.90;;;;;;5040048;28;20221;-73
2024/04/06 07:48:17;;;;;;;4.68;2.90;;;17.80;99.90;;;;;;5039879;28;20218;-73
2024/04/06 07:50:44;;;;;;;5.97;3.47;;;17.80;99.90;;;;;;5041770;28;20787;-73
2024/04/06 07:53:11;;;;;;;5.95;3.35;;;17.80;99.90;;;;;;5036816;28;20634;-73
2024/04/06 07:55:37;;;;;;;4.90;3.00;;;17.80;99.90;;;;;;5038156;28;20333;-74
2024/04/06 07:58:04;;;;;;;4.43;2.80;;;17.80;99.90;;;;;;5041535;28;20332;-72
2024/04/06 08:00:32;;;;;;;4.40;2.80;;;17.90;99.90;;;;;;5036085;28;20767;-73
2024/04/06 08:02:59;;;;;;;4.25;2.88;;;18.10;99.90;;;;;;5041320;28;20224;-73
2024/04/06 08:05:25;;;;;;;3.97;2.90;;;18.40;99.90;;;;;;5038398;28;20305;-73
2024/04/06 08:07:52;;;;;;;5.15;2.85;;;18.80;99.90;;;;;;5042363;28;20245;-73
2024/04/06 08:10:20;;;;;;;5.32;2.60;;;19.30;99.90;;;;;;5038205;28;20231;-73
2024/04/06 08:12:48;;;;;;;4.63;2.70;;;19.70;99.90;;;;;;5039263;28;20691;-73
2024/04/06 08:15:15;;;;;;;3.28;2.50;;;20.10;99.90;;;;;;5040074;28;20306;-73
2024/04/06 08:17:45;;;;;;;2.45;2.20;;;20.20;99.90;;;;;;5038947;28;20605;-73
2024/04/06 08:20:11;;;;;;;4.70;2.70;;;20.20;99.90;;;;;;5037849;28;20225;-73
2024/04/06 08:22:39;;;;;;;4.43;2.63;;;20.00;99.90;;;;;;5040826;28;20226;-73
2024/04/06 08:25:06;;;;;;;6.32;3.15;;;20.00;99.90;;;;;;5040254;28;20305;-73
2024/04/06 08:27:34;;;;;;;3.75;2.45;;;19.90;99.90;;;;;;5041390;28;20246;-72
2024/04/06 08:30:00;;;;;;;4.15;3.00;;;19.90;99.90;;;;;;5038351;28;20484;-73
2024/04/06 08:32:29;;;;;;;4.20;2.72;;;19.90;99.90;;;;;;5043126;28;20215;-72
2024/04/06 08:34:58;;;;;;;4.47;2.58;;;19.80;99.90;;;;;;5041005;28;20253;-73
2024/04/06 08:37:25;;;;;;;3.65;2.58;;;19.70;99.90;;;;;;5034572;28;20238;-73
2024/04/06 08:39:51;;;;;;;2.45;2.25;;;19.60;99.90;;;;;;5041230;28;20658;-73
2024/04/06 08:42:19;;;;;;;5.40;2.95;;;19.80;99.90;;;;;;5039919;28;20222;-72
2024/04/06 08:44:46;;;;;;;7.28;3.10;;;20.00;99.90;;;;;;5042771;28;20297;-72
2024/04/06 08:47:14;;;;;;;4.55;2.45;;;20.10;99.90;;;;;;5041361;28;20818;-72
2024/04/06 08:49:41;;;;;;;5.95;2.83;;;20.20;99.90;;;;;;5041578;28;20222;-73
2024/04/06 08:52:11;;;;;;;3.72;2.72;;;20.20;99.90;;;;;;5040202;28;20310;-73
2024/04/06 08:54:38;;;;;;;4.00;2.75;;;20.30;99.90;;;;;;5040769;28;20225;-73
2024/04/06 08:57:05;;;;;;;5.45;2.80;;;20.40;99.90;;;;;;5038054;28;20223;-73
2024/04/06 08:59:32;;;;;;;4.45;3.05;;;20.40;99.90;;;;;;5037172;28;20401;-72
2024/04/06 09:01:59;;;;;;;5.18;3.33;;;20.50;99.90;;;;;;5033710;28;20684;-72
2024/04/06 09:04:26;;;;;;;4.03;2.58;;;20.50;99.90;;;;;;5037765;28;20766;-73
2024/04/06 09:06:52;;;;;;;4.63;2.78;;;20.60;99.90;;;;;;5038597;28;20227;-72
2024/04/06 09:09:20;;;;;;;2.53;2.33;;;20.70;99.90;;;;;;5037283;28;20946;-72
2024/04/06 09:11:47;;;;;;;4.50;2.90;;;20.90;99.90;;;;;;5043087;28;20325;-72
2024/04/06 09:14:13;;;;;;;3.42;2.45;;;20.60;99.90;;;;;;5041742;28;20364;-72
2024/04/06 09:16:41;;;;;;;5.78;3.00;;;20.60;99.90;;;;;;5038596;28;20227;-72
2024/04/06 09:19:08;;;;;;;5.00;2.88;;;20.70;99.90;;;;;;5043402;28;20215;-73
2024/04/06 09:21:35;;;;;;;3.00;2.63;;;20.70;99.90;;;;;;5042353;28;20267;-72
2024/04/06 09:24:03;;;;;;;5.78;3.22;;;20.90;99.90;;;;;;5043850;28;20284;-72
2024/04/06 09:26:33;;;;;;;3.75;2.65;;;21.30;99.90;;;;;;5042482;28;20226;-72
2024/04/06 09:29:00;;;;;;;3.83;2.50;;;21.60;99.90;;;;;;5042282;28;20700;-72
2024/04/06 09:31:29;;;;;;;3.08;2.60;;;21.60;99.90;;;;;;5040482;28;20219;-72
2024/04/06 09:33:56;;;;;;;4.18;2.70;;;21.70;99.90;;;;;;5041200;28;20806;-72
2024/04/06 09:36:24;;;;;;;4.55;2.45;;;21.90;99.90;;;;;;5044389;28;20231;-72
2024/04/06 09:38:51;;;;;;;4.68;2.47;;;22.00;99.90;;;;;;5047517;28;20294;-72
2024/04/06 09:41:19;;;;;;;4.50;2.53;;;21.90;99.90;;;;;;5046483;28;20219;-73
2024/04/06 09:43:48;;;;;;;3.42;3.05;;;21.90;99.90;;;;;;5039168;28;20309;-72
2024/04/06 09:46:16;;;;;;;5.00;2.97;;;21.90;99.90;;;;;;5040600;28;20316;-72
2024/04/06 09:48:43;;;;;;;4.20;2.50;;;21.80;99.90;;;;;;5044701;28;20265;-72
2024/04/06 09:51:10;;;;;;;4.43;2.38;;;21.90;99.90;;;;;;5043302;28;20214;-72
2024/04/06 09:53:38;;;;;;;4.00;2.53;;;21.90;99.90;;;;;;5046452;28;20207;-72
2024/04/06 09:56:07;;;;;;;4.28;2.53;;;22.00;99.90;;;;;;5041432;28;20242;-72
2024/04/06 09:58:33;;;;;;;3.50;2.70;;;22.10;99.90;;;;;;5037833;28;20298;-72
2024/04/06 10:01:11;;;;;;;4.10;2.72;;;22.20;99.90;;;;;;5038526;28;20302;-72
2024/04/06 10:03:42;;;;;;;5.53;2.63;;;22.00;99.90;;;;;;5040522;28;20228;-72
2024/04/06 10:06:10;;;;;;;4.25;2.65;;;22.00;99.90;;;;;;5041365;28;20223;-72
2024/04/06 10:08:56;;;;;;;4.13;2.70;;;22.30;99.90;;;;;;5043537;28;20210;-73
2024/04/06 10:11:24;;;;;;;6.90;3.00;;;22.40;99.90;;;;;;5034262;28;20224;-72
2024/04/06 10:13:53;;;;;;;5.28;2.95;;;22.50;99.90;;;;;;5044570;28;20223;-72
2024/04/06 10:16:24;;;;;;;6.53;3.15;;;22.50;99.90;;;;;;5039713;28;20234;-73
2024/04/06 10:18:50;;;;;;;4.38;2.90;;;22.60;99.90;;;;;;5039247;28;20301;-72
2024/04/06 10:21:18;;;;;;;7.82;3.53;;;22.50;99.90;;;;;;5031841;28;20774;-72
2024/04/06 10:23:46;;;;;;;5.22;3.13;;;22.70;99.90;;;;;;5042313;28;20329;-72
2024/04/06 10:26:15;;;;;;;3.95;2.90;;;22.90;99.90;;;;;;5040065;28;20219;-73
2024/04/06 10:28:42;;;;;;;3.90;2.88;;;22.90;99.90;;;;;;5041785;28;20302;-72
2024/04/06 10:31:09;;;;;;;4.40;2.60;;;22.80;99.90;;;;;;5039949;28;20707;-72
2024/04/06 10:33:38;;;;;;;3.55;2.55;;;22.80;99.90;;;;;;5040473;28;20261;-73
2024/04/06 10:36:09;;;;;;;3.72;2.30;;;22.80;99.90;;;;;;5041004;28;20234;-72
2024/04/06 10:38:35;;;;;;;4.18;2.40;;;23.00;99.90;;;;;;5040151;28;20194;-72
2024/04/06 10:41:03;;;;;;;6.22;2.50;;;23.10;99.90;;;;;;5042602;28;20225;-73
2024/04/06 10:43:30;;;;;;;4.22;2.45;;;23.10;99.90;;;;;;5040217;28;20211;-73
2024/04/06 10:45:56;;;;;;;3.45;2.42;;;23.30;99.90;;;;;;5043584;28;20219;-72
2024/04/06 10:48:22;;;;;;;4.32;2.42;;;23.60;99.90;;;;;;5038580;28;20306;-72
2024/04/06 10:50:51;;;;;;;3.47;2.55;;;23.40;99.90;;;;;;5037399;28;20293;-73
2024/04/06 10:53:18;;;;;;;3.92;2.50;;;23.30;99.90;;;;;;5040911;28;20300;-72
2024/04/06 10:55:46;;;;;;;4.18;2.53;;;23.20;99.90;;;;;;5039561;28;20262;-73
2024/04/06 10:58:12;;;;;;;3.88;2.10;;;23.20;99.90;;;;;;5042152;28;20234;-73
2024/04/06 11:00:40;;;;;;;2.78;2.17;;;23.30;99.90;;;;;;5034681;28;20223;-73
2024/04/06 11:03:07;;;;;;;3.45;2.30;;;23.40;99.90;;;;;;5038972;28;20227;-72
2024/04/06 11:05:35;;;;;;;2.90;2.33;;;23.50;99.90;;;;;;5039016;28;20234;-72
2024/04/06 11:08:03;;;;;;;4.45;2.72;;;23.40;99.90;;;;;;5038438;28;20231;-72
2024/04/06 11:10:30;;;;;;;4.13;2.45;;;23.40;99.90;;;;;;5037052;28;20880;-72
2024/04/06 11:12:57;;;;;;;4.13;2.40;;;23.20;99.90;;;;;;5041002;28;20306;-72
2024/04/06 11:15:24;;;;;;;3.50;2.30;;;23.10;99.90;;;;;;5038426;28;20229;-72
2024/04/06 11:17:50;;;;;;;5.18;2.25;;;23.10;99.90;;;;;;5036518;28;20305;-72
2024/04/06 11:20:19;;;;;;;4.78;2.50;;;23.10;99.90;;;;;;5036623;28;20313;-73
2024/04/06 11:22:45;;;;;;;4.22;2.45;;;23.10;99.90;;;;;;5041496;28;20303;-72
2024/04/06 11:25:16;;;;;;;4.70;2.90;;;22.90;99.90;;;;;;5038699;28;20949;-73
2024/04/06 11:27:47;;;;;;;3.03;2.72;;;22.80;99.90;;;;;;5038814;28;21057;-73
2024/04/06 11:30:14;;;;;;;2.55;2.25;;;22.60;99.90;;;;;;5036938;28;20243;-73
2024/04/06 11:32:40;;;;;;;3.40;2.17;;;22.60;99.90;;;;;;5040088;28;20730;-73
2024/04/06 11:35:08;;;;;;;4.43;2.67;;;22.80;99.90;;;;;;5038113;28;20222;-73
2024/04/06 11:37:34;;;;;;;3.97;2.47;;;22.90;99.90;;;;;;5037388;28;20233;-72
2024/04/06 11:40:01;;;;;;;4.70;3.08;;;23.00;99.90;;;;;;5038054;28;20626;-73
2024/04/06 11:42:29;;;;;;;4.15;2.47;;;23.10;99.90;;;;;;5038159;28;20843;-73
2024/04/06 11:44:56;;;;;;;3.67;2.28;;;23.20;99.90;;;;;;5035066;28;20203;-73
2024/04/06 11:47:22;;;;;;;3.35;2.25;;;23.30;99.90;;;;;;5037385;28;20222;-73
2024/04/06 11:49:49;;;;;;;4.47;2.55;;;23.40;99.90;;;;;;5037994;28;20222;-73
2024/04/06 11:52:15;;;;;;;6.18;2.63;;;23.40;99.90;;;;;;5052659;28;20226;-73
2024/04/06 11:54:43;;;;;;;4.32;2.42;;;23.30;99.90;;;;;;5039649;28;20219;-73
2024/04/06 11:57:09;;;;;;;3.83;2.75;;;23.30;99.90;;;;;;5039381;28;20222;-73
2024/04/06 11:59:38;;;;;;;4.43;2.50;;;23.20;99.90;;;;;;5037175;28;20219;-73
2024/04/06 12:02:04;;;;;;;4.55;2.30;;;23.10;99.90;;;;;;5039926;28;20871;-73
2024/04/06 12:04:31;;;;;;;4.10;2.35;;;23.10;99.90;;;;;;5036434;28;20826;-73
2024/04/06 12:06:58;;;;;;;2.88;2.15;;;23.10;99.90;;;;;;5032940;28;20310;-73
2024/04/06 12:09:26;;;;;;;4.47;2.10;;;23.40;99.90;;;;;;5040418;28;20246;-73
2024/04/06 12:11:52;;;;;;;4.13;2.58;;;23.60;99.90;;;;;;5037570;28;20218;-73
2024/04/06 12:14:20;;;;;;;3.47;2.20;;;23.60;99.90;;;;;;5038684;28;20203;-73
2024/04/06 12:16:47;;;;;;;2.65;2.17;;;23.70;99.90;;;;;;5050204;28;20721;-74
2024/04/06 12:19:15;;;;;;;4.45;2.30;;;23.80;99.90;;;;;;5046833;28;20217;-74
2024/04/06 12:21:40;;;;;;;4.68;2.38;;;23.90;99.90;;;;;;5038104;28;20803;-74
2024/04/06 12:24:07;;;;;;;4.55;2.38;;;24.00;99.90;;;;;;5042111;28;20199;-73
2024/04/06 12:26:33;;;;;;;4.43;2.13;;;24.00;99.90;;;;;;5039008;28;20313;-73
2024/04/06 12:29:00;;;;;;;5.20;1.80;;;24.10;99.90;;;;;;5041182;28;20822;-73
2024/04/06 12:31:27;;;;;;;3.08;2.35;;;24.30;99.90;;;;;;5043077;28;20313;-73
2024/04/06 12:33:56;;;;;;;5.95;2.35;;;24.40;99.90;;;;;;5039062;28;22173;-73
2024/04/06 12:36:22;;;;;;;4.03;2.15;;;24.30;99.90;;;;;;5036904;28;20314;-73
2024/04/06 12:38:49;;;;;;;4.60;2.05;;;24.10;99.90;;;;;;5039102;28;20245;-73
2024/04/06 12:41:15;;;;;;;4.40;2.22;;;24.10;99.90;;;;;;5036258;28;20334;-73
2024/04/06 12:43:42;;;;;;;3.20;2.33;;;24.30;99.90;;;;;;5046079;28;20326;-73
2024/04/06 12:46:08;;;;;;;2.63;1.90;;;24.40;99.90;;;;;;5045095;28;20238;-73